Time;durP1;ratioP1;P1;durP2;ratioP2;P2;SDS_P1;SDS_P2;PMS_P1;PMS_P2;Temp;Humidity;BMP_temperature;BMP_pressure;BME280_temperature;BME280_humidity;BME280_pressure;Samples;Min_cycle;Max_cycle;Signal;HPM_P1;HPM_P2
2022/04/28 00:00:08;;;;;;;5.17;4.10;;;10.70;99.90;;;;;;7385913;19;20130;-77
2022/04/28 00:02:35;;;;;;;5.47;4.00;;;10.90;99.90;;;;;;7384743;19;20147;-79
2022/04/28 00:05:04;;;;;;;7.37;4.23;;;11.20;99.90;;;;;;7390024;19;20149;-74
2022/04/28 00:07:29;;;;;;;4.67;3.57;;;11.30;99.90;;;;;;7384510;19;20131;-73
2022/04/28 00:09:55;;;;;;;6.27;4.27;;;11.30;99.90;;;;;;7385311;19;20206;-75
2022/04/28 00:12:21;;;;;;;4.73;3.63;;;11.40;99.90;;;;;;7393716;19;20138;-77
2022/04/28 00:14:47;;;;;;;5.00;3.57;;;11.50;99.90;;;;;;7388361;19;20143;-77
2022/04/28 00:17:13;;;;;;;5.27;3.87;;;11.60;99.90;;;;;;7384484;19;20135;-75
2022/04/28 00:19:38;;;;;;;3.83;3.33;;;11.60;99.90;;;;;;7384449;19;20605;-78
2022/04/28 00:22:04;;;;;;;4.57;4.10;;;11.50;99.90;;;;;;7384839;19;20146;-73
2022/04/28 00:24:30;;;;;;;5.20;3.63;;;11.50;99.90;;;;;;7389426;19;20227;-77
2022/04/28 00:26:56;;;;;;;4.67;4.03;;;11.50;99.90;;;;;;7388059;19;20165;-75
2022/04/28 00:29:22;;;;;;;4.17;3.47;;;11.60;99.90;;;;;;7389076;19;20701;-75
2022/04/28 00:31:48;;;;;;;4.33;3.60;;;11.40;99.90;;;;;;7385962;19;20181;-76
2022/04/28 00:34:15;;;;;;;4.80;3.80;;;11.50;99.90;;;;;;7386356;19;20155;-78
2022/04/28 00:36:41;;;;;;;4.50;3.70;;;11.30;99.90;;;;;;7389922;19;20560;-75
2022/04/28 00:39:07;;;;;;;4.07;3.67;;;11.20;99.90;;;;;;7395968;19;20138;-73
2022/04/28 00:41:33;;;;;;;6.00;3.30;;;11.20;99.90;;;;;;7388229;19;20173;-74
2022/04/28 00:44:00;;;;;;;4.33;3.80;;;10.80;99.90;;;;;;7385684;19;20589;-73
2022/04/28 00:46:26;;;;;;;4.63;3.50;;;10.60;99.90;;;;;;7388521;19;20151;-76
2022/04/28 00:51:37;;;;;;;4.03;3.60;;;10.80;99.90;;;;;;7385444;19;20158;-74
2022/04/28 00:54:04;;;;;;;6.70;3.70;;;10.60;99.90;;;;;;7385532;19;20142;-77
2022/04/28 00:56:30;;;;;;;4.07;3.50;;;10.60;99.90;;;;;;7385685;19;20577;-74
2022/04/28 00:59:02;;;;;;;5.87;4.40;;;10.80;99.90;;;;;;7395018;19;20155;-75
2022/04/28 01:01:32;;;;;;;4.53;4.00;;;10.40;99.90;;;;;;7388897;19;20610;-73
2022/04/28 01:03:59;;;;;;;4.20;3.73;;;10.50;99.90;;;;;;7384926;19;20194;-73
2022/04/28 01:06:25;;;;;;;4.83;3.80;;;10.30;99.90;;;;;;7385022;19;20148;-74
2022/04/28 01:08:51;;;;;;;4.80;3.93;;;10.40;99.90;;;;;;7385408;19;20146;-75
2022/04/28 01:11:17;;;;;;;4.50;3.90;;;10.70;99.90;;;;;;7386684;19;20241;-73
2022/04/28 01:13:44;;;;;;;5.13;3.97;;;10.90;99.90;;;;;;7384575;19;20127;-77
2022/04/28 01:16:12;;;;;;;4.80;3.77;;;11.00;99.90;;;;;;7383991;19;20234;-77
2022/04/28 01:18:38;;;;;;;5.73;3.70;;;11.10;99.90;;;;;;7386283;19;20127;-78
2022/04/28 01:21:08;;;;;;;5.87;4.47;;;10.70;99.90;;;;;;7396074;19;20149;-77
2022/04/28 01:23:35;;;;;;;4.77;3.97;;;10.70;99.90;;;;;;7385711;19;20158;-77
2022/04/28 01:26:02;;;;;;;5.20;4.70;;;10.50;99.90;;;;;;7383624;19;20131;-76
2022/04/28 01:28:29;;;;;;;7.20;4.90;;;10.60;99.90;;;;;;7383413;19;20146;-77
2022/04/28 01:30:55;;;;;;;5.37;4.50;;;10.60;99.90;;;;;;7385189;19;20663;-76
2022/04/28 01:33:21;;;;;;;5.37;4.30;;;10.50;99.90;;;;;;7390700;19;20127;-72
2022/04/28 01:35:47;;;;;;;6.70;4.10;;;10.50;99.90;;;;;;7384581;19;20735;-74
2022/04/28 01:38:13;;;;;;;5.43;4.23;;;10.50;99.90;;;;;;7388881;19;20235;-74
2022/04/28 01:40:38;;;;;;;5.63;4.43;;;10.40;99.90;;;;;;7388096;19;20454;-78
2022/04/28 01:43:04;;;;;;;5.00;3.80;;;10.20;99.90;;;;;;7384205;19;20131;-73
2022/04/28 01:45:33;;;;;;;6.57;4.97;;;10.30;99.90;;;;;;7397883;19;20154;-78
2022/04/28 01:47:59;;;;;;;7.00;4.80;;;10.30;99.90;;;;;;7395291;19;20127;-77
2022/04/28 01:50:24;;;;;;;6.90;4.27;;;10.40;99.90;;;;;;7390755;19;20143;-74
2022/04/28 01:55:34;;;;;;;6.63;4.43;;;10.10;99.90;;;;;;7392404;19;20131;-78
2022/04/28 01:58:00;;;;;;;6.40;5.03;;;9.90;99.90;;;;;;7391980;19;20155;-73
2022/04/28 02:00:26;;;;;;;6.47;4.93;;;9.70;99.90;;;;;;7391002;19;20134;-74
2022/04/28 02:02:52;;;;;;;4.97;4.17;;;9.80;99.90;;;;;;7389487;19;20186;-78
2022/04/28 02:05:18;;;;;;;7.70;4.53;;;10.10;99.90;;;;;;7390803;19;20127;-77
2022/04/28 02:07:44;;;;;;;5.83;4.87;;;10.40;99.90;;;;;;7390108;19;20150;-79
2022/04/28 02:10:10;;;;;;;6.67;4.73;;;10.50;99.90;;;;;;7396402;19;20131;-74
2022/04/28 02:12:37;;;;;;;8.60;5.90;;;10.40;99.90;;;;;;7397392;19;20718;-75
2022/04/28 02:15:03;;;;;;;7.53;5.40;;;10.30;99.90;;;;;;7390170;19;20187;-78
2022/04/28 02:17:34;;;;;;;6.90;5.27;;;10.30;99.90;;;;;;7390977;19;20217;-75
2022/04/28 02:20:06;;;;;;;10.60;5.33;;;10.40;99.90;;;;;;7393206;19;20197;-74
2022/04/28 02:22:32;;;;;;;7.33;4.77;;;10.40;99.90;;;;;;7388922;19;20150;-77
2022/04/28 02:24:58;;;;;;;8.53;5.53;;;10.50;99.90;;;;;;7389546;19;20127;-73
2022/04/28 02:27:24;;;;;;;5.67;4.73;;;10.60;99.90;;;;;;7391776;19;20123;-73
2022/04/28 02:29:51;;;;;;;4.90;4.27;;;10.40;99.90;;;;;;7397171;19;20205;-76
2022/04/28 02:32:17;;;;;;;6.10;5.00;;;10.40;99.90;;;;;;7395006;19;20166;-73
2022/04/28 02:34:42;;;;;;;6.63;5.30;;;10.30;99.90;;;;;;7389589;19;20131;-77
2022/04/28 02:37:09;;;;;;;5.37;4.87;;;10.10;99.90;;;;;;7388539;19;20212;-73
2022/04/28 02:39:34;;;;;;;6.17;5.30;;;10.20;99.90;;;;;;7391097;19;20164;-75
2022/04/28 02:42:00;;;;;;;5.73;4.63;;;10.30;99.90;;;;;;7392342;19;20146;-77
2022/04/28 02:44:26;;;;;;;5.73;5.13;;;10.40;99.90;;;;;;7391659;19;20218;-76
2022/04/28 02:46:52;;;;;;;5.87;4.73;;;10.50;99.90;;;;;;7394096;19;20166;-75
2022/04/28 02:49:18;;;;;;;7.17;5.43;;;10.40;99.90;;;;;;7394724;19;20586;-77
2022/04/28 02:51:44;;;;;;;6.47;5.20;;;10.50;99.90;;;;;;7390624;19;21125;-74
2022/04/28 02:54:10;;;;;;;6.37;5.10;;;10.20;99.90;;;;;;7391135;19;20718;-77
2022/04/28 02:56:36;;;;;;;8.27;5.33;;;10.20;99.90;;;;;;7388069;19;20130;-78
2022/04/28 02:59:02;;;;;;;8.47;5.17;;;10.30;99.90;;;;;;7387971;19;20131;-77
2022/04/28 03:01:28;;;;;;;7.70;5.73;;;10.10;99.90;;;;;;7389074;19;20162;-74
2022/04/28 03:03:54;;;;;;;6.20;5.10;;;9.80;99.90;;;;;;7386440;19;20139;-73
2022/04/28 03:11:52;;;;;;;7.83;5.57;;;9.10;99.90;;;;;;7392053;19;20150;-74
2022/04/28 03:14:19;;;;;;;7.17;5.43;;;9.20;99.90;;;;;;7387946;19;20154;-74
2022/04/28 03:16:44;;;;;;;6.93;4.90;;;9.70;99.90;;;;;;7388993;19;20147;-74
2022/04/28 03:19:10;;;;;;;7.87;4.97;;;9.30;99.90;;;;;;7387963;19;20131;-74
2022/04/28 03:21:37;;;;;;;8.03;5.23;;;9.40;99.90;;;;;;7385767;19;20214;-78
2022/04/28 03:24:04;;;;;;;8.20;5.30;;;9.60;99.90;;;;;;7388092;19;20613;-77
2022/04/28 03:26:30;;;;;;;8.47;5.30;;;9.70;99.90;;;;;;7386829;19;20498;-74
2022/04/28 03:28:58;;;;;;;8.20;4.60;;;9.80;99.90;;;;;;7386945;19;20578;-72
2022/04/28 03:31:24;;;;;;;6.53;4.60;;;10.00;99.90;;;;;;7391145;19;20150;-78
2022/04/28 03:33:50;;;;;;;7.47;4.50;;;10.00;99.90;;;;;;7392266;19;20159;-74
2022/04/28 03:39:01;;;;;;;6.70;4.93;;;10.10;99.90;;;;;;7387621;19;20134;-78
2022/04/28 03:41:27;;;;;;;10.67;4.80;;;9.90;99.90;;;;;;7387726;19;20153;-73
2022/04/28 03:43:53;;;;;;;6.73;4.63;;;10.00;99.90;;;;;;7386579;19;20162;-77
2022/04/28 03:46:20;;;;;;;7.20;5.03;;;10.10;99.90;;;;;;7387585;19;20873;-73
2022/04/28 03:48:48;;;;;;;8.20;4.53;;;9.60;99.90;;;;;;7388244;19;20517;-74
2022/04/28 03:51:14;;;;;;;8.83;4.90;;;9.50;99.90;;;;;;7389972;19;20146;-78
2022/04/28 03:53:40;;;;;;;6.00;4.20;;;9.50;99.90;;;;;;7394858;19;20146;-78
2022/04/28 03:56:06;;;;;;;8.90;5.10;;;9.50;99.90;;;;;;7388971;19;20131;-74
2022/04/28 03:58:32;;;;;;;8.60;5.20;;;9.60;99.90;;;;;;7387093;19;20577;-73
2022/04/28 04:00:59;;;;;;;9.60;4.83;;;9.60;99.90;;;;;;7387768;19;20150;-78
2022/04/28 04:03:25;;;;;;;7.37;4.73;;;9.60;99.90;;;;;;7388118;19;20158;-78
2022/04/28 04:05:51;;;;;;;8.10;5.07;;;9.30;99.90;;;;;;7386753;19;20205;-78
2022/04/28 04:08:17;;;;;;;7.53;4.83;;;9.50;99.90;;;;;;7389046;19;20594;-78
2022/04/28 04:10:43;;;;;;;6.27;5.03;;;9.60;99.90;;;;;;7386907;19;20134;-72
2022/04/28 04:13:08;;;;;;;6.73;5.10;;;9.30;99.90;;;;;;7398525;19;20131;-77
2022/04/28 04:15:36;;;;;;;7.37;5.03;;;9.30;99.90;;;;;;7397722;19;20138;-75
2022/04/28 04:18:03;;;;;;;6.40;4.50;;;9.50;99.90;;;;;;7386925;19;20131;-73
2022/04/28 04:20:29;;;;;;;7.63;5.13;;;9.70;99.90;;;;;;7385072;19;20162;-74
2022/04/28 04:22:55;;;;;;;7.07;4.83;;;9.80;99.90;;;;;;7384849;19;20159;-78
2022/04/28 04:25:21;;;;;;;5.97;5.03;;;9.80;99.90;;;;;;7386732;19;20146;-74
2022/04/28 04:27:47;;;;;;;8.27;5.73;;;9.80;99.90;;;;;;7386449;19;20137;-75
2022/04/28 04:32:58;;;;;;;7.80;5.63;;;9.70;99.90;;;;;;7390207;19;20146;-77
2022/04/28 04:35:24;;;;;;;7.57;5.60;;;9.70;99.90;;;;;;7386588;19;20789;-73
2022/04/28 04:37:51;;;;;;;6.63;4.67;;;9.60;99.90;;;;;;7387636;19;20127;-75
2022/04/28 04:40:16;;;;;;;6.93;5.53;;;9.70;99.90;;;;;;7388772;19;20495;-78
2022/04/28 04:42:42;;;;;;;7.33;5.50;;;9.70;99.90;;;;;;7388864;19;20131;-78
2022/04/28 04:45:09;;;;;;;7.57;5.67;;;9.70;99.90;;;;;;7390237;19;20155;-78
2022/04/28 04:47:36;;;;;;;6.77;5.03;;;9.80;99.90;;;;;;7384515;19;20146;-74
2022/04/28 04:50:03;;;;;;;8.50;5.60;;;9.80;99.90;;;;;;7385724;19;20126;-73
2022/04/28 04:52:29;;;;;;;7.20;6.10;;;9.80;99.90;;;;;;7388351;19;20230;-77
2022/04/28 04:54:55;;;;;;;6.10;4.80;;;9.80;99.90;;;;;;7388375;19;20555;-75
2022/04/28 04:57:23;;;;;;;7.20;5.93;;;9.90;99.90;;;;;;7386336;19;20142;-76
2022/04/28 04:59:48;;;;;;;6.17;5.57;;;9.80;99.90;;;;;;7395422;19;20134;-75
2022/04/28 05:02:14;;;;;;;7.07;5.70;;;9.80;99.90;;;;;;7387347;19;20157;-75
2022/04/28 05:04:40;;;;;;;8.10;5.00;;;9.90;99.90;;;;;;7385793;19;20130;-76
2022/04/28 05:07:06;;;;;;;6.17;5.13;;;9.90;99.90;;;;;;7384994;19;20154;-74
2022/04/28 05:09:32;;;;;;;7.87;6.10;;;9.80;99.90;;;;;;7385468;19;20131;-76
2022/04/28 05:11:58;;;;;;;6.57;5.70;;;9.40;99.90;;;;;;7386485;19;20151;-77
2022/04/28 05:14:23;;;;;;;7.63;5.57;;;9.60;99.90;;;;;;7387603;19;20558;-74
2022/04/28 05:16:49;;;;;;;6.57;5.47;;;9.60;99.90;;;;;;7384252;19;20123;-75
2022/04/28 05:19:15;;;;;;;8.90;5.43;;;9.50;99.90;;;;;;7388257;19;20151;-75
2022/04/28 05:21:41;;;;;;;6.43;5.70;;;9.40;99.90;;;;;;7389939;19;20178;-77
2022/04/28 05:24:07;;;;;;;6.23;5.07;;;9.40;99.90;;;;;;7392913;19;20262;-77
2022/04/28 05:26:33;;;;;;;9.70;5.47;;;9.60;99.90;;;;;;7394660;19;20967;-77
2022/04/28 05:28:59;;;;;;;14.77;8.50;;;9.80;99.90;;;;;;7393454;19;20206;-74
2022/04/28 05:31:25;;;;;;;10.67;7.17;;;9.70;99.90;;;;;;7395343;19;20157;-73
2022/04/28 05:33:51;;;;;;;9.63;7.00;;;9.80;99.90;;;;;;7393597;19;20245;-76
2022/04/28 05:36:17;;;;;;;11.57;5.87;;;9.90;99.90;;;;;;7394962;19;20175;-77
2022/04/28 05:38:43;;;;;;;7.50;5.30;;;10.00;99.90;;;;;;7391726;19;20149;-77
2022/04/28 05:41:09;;;;;;;6.73;5.23;;;10.10;99.90;;;;;;7391297;19;20251;-76
2022/04/28 05:46:21;;;;;;;8.17;5.93;;;10.30;99.90;;;;;;7402910;19;20274;-75
2022/04/28 05:48:47;;;;;;;6.83;5.30;;;10.40;99.90;;;;;;7402119;19;20135;-77
2022/04/28 05:51:13;;;;;;;6.33;5.20;;;10.40;99.90;;;;;;7394334;19;20815;-75
2022/04/28 05:53:39;;;;;;;8.33;5.73;;;10.40;99.90;;;;;;7395037;19;20146;-77
2022/04/28 05:56:06;;;;;;;8.77;5.40;;;10.30;99.90;;;;;;7393925;19;20165;-74
2022/04/28 05:58:32;;;;;;;7.43;5.83;;;10.20;99.90;;;;;;7395847;19;20142;-76
2022/04/28 06:00:59;;;;;;;11.00;6.00;;;10.00;99.90;;;;;;7388781;19;20127;-74
2022/04/28 06:03:25;;;;;;;10.23;6.00;;;9.70;99.90;;;;;;7389080;19;20151;-74
2022/04/28 06:05:51;;;;;;;10.80;6.20;;;9.50;99.90;;;;;;7391436;19;20614;-77
2022/04/28 06:08:16;;;;;;;7.43;5.43;;;9.80;99.90;;;;;;7393183;19;20178;-73
2022/04/28 06:10:42;;;;;;;8.50;5.93;;;9.60;99.90;;;;;;7393604;19;20142;-76
2022/04/28 06:13:08;;;;;;;8.90;6.33;;;9.70;99.90;;;;;;7398869;19;20146;-69
2022/04/28 06:15:34;;;;;;;8.77;6.43;;;10.10;99.90;;;;;;7395083;19;20246;-75
2022/04/28 06:18:00;;;;;;;9.30;6.70;;;10.30;99.90;;;;;;7395262;19;20554;-75
2022/04/28 06:20:26;;;;;;;8.03;6.20;;;10.50;99.90;;;;;;7393637;19;20166;-76
2022/04/28 06:22:52;;;;;;;10.07;6.50;;;10.60;99.90;;;;;;7391058;19;20135;-71
2022/04/28 06:25:19;;;;;;;7.23;6.20;;;10.60;99.90;;;;;;7391283;19;20130;-70
2022/04/28 06:27:44;;;;;;;9.93;5.90;;;10.70;99.90;;;;;;7390122;19;20671;-75
2022/04/28 06:30:10;;;;;;;7.43;5.87;;;10.80;99.90;;;;;;7389026;19;20163;-71
2022/04/28 06:32:37;;;;;;;8.90;5.93;;;11.20;99.90;;;;;;7392140;19;20723;-75
2022/04/28 06:35:04;;;;;;;8.63;6.50;;;11.90;99.90;;;;;;7391358;19;20166;-70
2022/04/28 06:37:30;;;;;;;6.63;5.40;;;12.80;99.90;;;;;;7397943;19;20138;-77
2022/04/28 06:39:56;;;;;;;6.70;5.60;;;13.50;99.90;;;;;;7396836;19;20160;-69
2022/04/28 06:42:21;;;;;;;6.63;5.67;;;13.60;99.90;;;;;;7390374;19;20123;-75
2022/04/28 06:44:47;;;;;;;7.27;5.67;;;13.90;99.90;;;;;;7392114;19;20129;-70
2022/04/28 06:47:13;;;;;;;7.77;5.67;;;14.10;99.90;;;;;;7388528;19;20564;-69
2022/04/28 06:49:40;;;;;;;9.33;5.77;;;14.40;99.90;;;;;;7390655;19;20135;-75
2022/04/28 06:52:06;;;;;;;6.67;5.43;;;14.70;99.90;;;;;;7391934;19;20587;-75
2022/04/28 06:54:32;;;;;;;10.13;5.60;;;15.00;99.90;;;;;;7392442;19;20178;-69
2022/04/28 06:56:58;;;;;;;6.50;5.30;;;15.40;99.90;;;;;;7390172;19;20138;-75
2022/04/28 06:59:24;;;;;;;6.53;5.07;;;15.30;99.90;;;;;;7391452;19;20139;-75
2022/04/28 07:01:50;;;;;;;6.23;5.03;;;15.10;99.90;;;;;;7390838;19;20604;-75
2022/04/28 07:04:16;;;;;;;5.73;4.97;;;14.70;99.90;;;;;;7389508;19;20154;-76
2022/04/28 07:06:42;;;;;;;7.27;5.73;;;14.60;99.90;;;;;;7388457;19;20146;-69
2022/04/28 07:09:08;;;;;;;6.80;6.07;;;14.60;99.90;;;;;;7388691;19;20405;-76
2022/04/28 07:11:34;;;;;;;7.65;6.00;;;14.80;99.90;;;;;;7389311;19;20582;-77
2022/04/28 07:14:00;;;;;;;8.90;5.90;;;15.10;99.90;;;;;;7395034;19;20142;-71
2022/04/28 07:16:26;;;;;;;6.47;5.27;;;15.30;99.90;;;;;;7395955;19;20134;-69
2022/04/28 07:18:51;;;;;;;6.10;5.20;;;15.40;99.90;;;;;;7395139;19;20145;-72
2022/04/28 07:21:17;;;;;;;6.17;5.03;;;15.40;99.90;;;;;;7387984;19;20964;-70
2022/04/28 07:23:43;;;;;;;6.40;5.23;;;15.50;99.90;;;;;;7387448;19;20633;-71
2022/04/28 07:26:09;;;;;;;7.50;5.50;;;15.50;99.90;;;;;;7394736;19;20206;-77
2022/04/28 07:28:35;;;;;;;7.33;5.33;;;15.50;99.90;;;;;;7388791;19;20800;-70
2022/04/28 07:31:01;;;;;;;8.00;5.73;;;15.60;99.90;;;;;;7389153;19;20214;-77
2022/04/28 07:33:27;;;;;;;6.60;5.33;;;15.70;99.90;;;;;;7389597;19;20143;-70
2022/04/28 07:35:53;;;;;;;6.38;4.93;;;15.60;99.90;;;;;;7388146;19;20807;-72
2022/04/28 07:38:19;;;;;;;5.53;4.63;;;15.70;99.90;;;;;;7393983;19;20134;-77
2022/04/28 07:40:45;;;;;;;7.00;4.93;;;15.90;99.90;;;;;;7385007;19;20148;-77
2022/04/28 07:43:10;;;;;;;5.43;4.77;;;16.20;99.90;;;;;;7387127;19;20155;-69
2022/04/28 07:45:36;;;;;;;6.32;4.32;;;16.40;99.90;;;;;;7384421;19;20151;-77
2022/04/28 07:48:03;;;;;;;5.33;4.50;;;16.90;99.90;;;;;;7388106;19;20245;-75
2022/04/28 07:50:30;;;;;;;5.13;3.78;;;16.90;99.90;;;;;;7386595;19;20148;-77
2022/04/28 07:52:56;;;;;;;5.03;4.32;;;16.90;99.90;;;;;;7386401;19;20131;-69
2022/04/28 07:55:22;;;;;;;5.17;4.13;;;17.00;99.90;;;;;;7389907;19;20142;-77
2022/04/28 07:57:48;;;;;;;5.93;4.85;;;17.00;99.90;;;;;;7387089;19;20142;-71
2022/04/28 08:00:14;;;;;;;4.78;4.20;;;17.20;99.90;;;;;;7397442;19;20151;-73
2022/04/28 08:02:40;;;;;;;5.90;4.18;;;17.10;99.90;;;;;;7402011;19;20139;-70
2022/04/28 08:05:06;;;;;;;5.57;4.35;;;17.10;99.90;;;;;;7390261;19;20202;-77
2022/04/28 08:07:33;;;;;;;5.28;3.95;;;17.10;99.90;;;;;;7386462;19;20696;-71
2022/04/28 08:09:59;;;;;;;4.97;3.75;;;17.30;99.90;;;;;;7391237;19;20177;-69
2022/04/28 08:12:26;;;;;;;5.40;4.07;;;17.60;99.90;;;;;;7387469;19;20147;-68
2022/04/28 08:14:52;;;;;;;5.45;4.90;;;17.40;99.90;;;;;;7388361;19;20154;-68
2022/04/28 08:17:18;;;;;;;6.95;4.07;;;17.60;99.90;;;;;;7384892;19;20134;-69
2022/04/28 08:19:43;;;;;;;7.25;5.22;;;17.70;99.90;;;;;;7387098;19;20606;-75
2022/04/28 08:22:09;;;;;;;3.92;3.15;;;17.60;99.90;;;;;;7385036;19;20146;-70
2022/04/28 08:24:35;;;;;;;3.40;3.10;;;17.80;99.90;;;;;;7387617;19;20882;-75
2022/04/28 08:27:04;;;;;;;3.75;3.05;;;18.20;99.90;;;;;;7388236;19;20151;-75
2022/04/28 08:29:30;;;;;;;3.35;2.63;;;18.30;99.90;;;;;;7387916;19;20142;-70
2022/04/28 08:31:56;;;;;;;5.07;2.95;;;18.30;99.90;;;;;;7386493;19;20250;-76
2022/04/28 08:34:22;;;;;;;5.25;3.17;;;18.20;99.90;;;;;;7391213;19;20238;-77
2022/04/28 08:36:49;;;;;;;3.35;2.80;;;18.10;99.90;;;;;;7385241;19;20566;-68
2022/04/28 08:39:16;;;;;;;4.72;2.97;;;18.10;99.90;;;;;;7385778;19;20141;-75
2022/04/28 08:41:47;;;;;;;3.85;2.70;;;18.10;99.90;;;;;;7393199;19;20456;-77
2022/04/28 08:44:26;;;;;;;4.45;2.70;;;18.30;99.90;;;;;;7388268;19;20127;-79
2022/04/28 08:46:54;;;;;;;3.20;2.78;;;18.30;99.80;;;;;;7401429;19;20138;-77
2022/04/28 08:49:31;;;;;;;3.33;2.83;;;18.10;99.90;;;;;;7398450;19;20142;-69
2022/04/28 08:51:58;;;;;;;2.88;2.25;;;18.00;99.90;;;;;;7389874;19;20213;-78
2022/04/28 08:54:27;;;;;;;4.22;2.47;;;17.80;99.80;;;;;;7390019;19;20137;-78
2022/04/28 08:56:55;;;;;;;4.05;2.63;;;17.70;99.60;;;;;;7385289;19;20299;-71
2022/04/28 08:59:22;;;;;;;3.85;2.60;;;17.60;99.90;;;;;;7390685;19;20225;-71
2022/04/28 09:01:50;;;;;;;4.45;2.95;;;17.70;99.70;;;;;;7391673;19;20152;-78
2022/04/28 09:04:17;;;;;;;2.92;2.60;;;17.70;99.50;;;;;;7389406;19;20214;-78
2022/04/28 09:06:44;;;;;;;2.30;2.08;;;17.50;98.80;;;;;;7392857;19;20574;-72
2022/04/28 09:09:12;;;;;;;3.08;2.60;;;17.40;98.40;;;;;;7398488;19;20135;-73
2022/04/28 09:11:42;;;;;;;4.30;2.50;;;17.70;98.20;;;;;;7390179;19;20193;-76
2022/04/28 09:14:14;;;;;;;3.38;1.85;;;17.70;97.20;;;;;;7384790;19;20740;-73
2022/04/28 09:17:12;;;;;;;2.63;1.98;;;17.80;97.10;;;;;;7380804;19;20139;-77
2022/04/28 09:19:39;;;;;;;1.98;1.70;;;18.00;96.50;;;;;;7382637;19;21120;-73
2022/04/28 09:22:13;;;;;;;3.17;2.00;;;18.00;95.40;;;;;;7386595;19;20150;-73
2022/04/28 09:24:43;;;;;;;2.85;1.88;;;17.80;95.00;;;;;;7398721;19;20142;-75
2022/04/28 09:27:09;;;;;;;2.15;1.80;;;17.50;94.50;;;;;;7402644;19;20281;-78
2022/04/28 09:29:39;;;;;;;3.88;2.33;;;17.50;94.80;;;;;;7380739;19;20178;-76
2022/04/28 09:32:15;;;;;;;2.97;1.80;;;17.70;94.00;;;;;;7385342;19;20174;-80
2022/04/28 09:34:49;;;;;;;8.68;1.83;;;17.80;93.10;;;;;;7386990;19;20138;-78
2022/04/28 09:37:27;;;;;;;2.65;1.70;;;17.70;92.50;;;;;;7391561;19;20167;-74
2022/04/28 09:42:41;;;;;;;3.13;1.90;;;17.40;93.40;;;;;;7384851;19;20134;-81
2022/04/28 09:45:10;;;;;;;2.13;1.75;;;17.60;92.90;;;;;;7385668;19;20143;-74
2022/04/28 09:47:36;;;;;;;2.97;2.05;;;17.70;92.80;;;;;;7387359;19;20138;-72
2022/04/28 09:50:13;;;;;;;1.83;1.50;;;17.80;92.60;;;;;;7386733;19;20157;-75
2022/04/28 09:52:41;;;;;;;2.65;2.20;;;17.90;92.40;;;;;;7378337;19;20150;-75
2022/04/28 09:55:07;;;;;;;5.63;2.75;;;17.90;91.70;;;;;;7386650;19;20130;-75
2022/04/28 09:57:33;;;;;;;4.25;2.80;;;17.80;91.70;;;;;;7383725;19;20724;-73
2022/04/28 10:00:00;;;;;;;2.05;1.77;;;17.70;91.60;;;;;;7388386;19;20138;-77
2022/04/28 10:02:27;;;;;;;4.95;4.03;;;17.70;92.10;;;;;;7386382;19;20235;-77
2022/04/28 10:04:54;;;;;;;2.05;1.70;;;17.80;92.30;;;;;;7378912;19;20155;-72
2022/04/28 10:07:21;;;;;;;1.65;1.50;;;17.90;91.60;;;;;;7384172;19;20159;-74
2022/04/28 10:09:50;;;;;;;1.92;1.67;;;18.00;91.30;;;;;;7393509;19;20138;-76
2022/04/28 10:12:25;;;;;;;3.53;2.03;;;18.10;90.60;;;;;;7394832;19;20167;-76
2022/04/28 10:14:53;;;;;;;2.13;1.60;;;18.30;91.00;;;;;;7395453;19;20146;-74
2022/04/28 10:17:46;;;;;;;1.85;1.50;;;18.30;90.20;;;;;;7387267;19;20151;-72
2022/04/28 10:20:20;;;;;;;2.05;1.35;;;18.30;90.20;;;;;;7389156;19;20185;-72
2022/04/28 10:22:50;;;;;;;3.85;2.10;;;18.20;90.50;;;;;;7389518;19;20153;-77
2022/04/28 10:32:22;;;;;;;3.20;1.90;;;18.40;89.90;;;;;;7389211;19;20145;-76
2022/04/28 10:33:49;;;;;;;2.10;1.90;;;18.30;89.10;;;;;;7387337;19;20129;-77
2022/04/28 10:36:19;;;;;;;2.80;1.83;;;18.20;88.50;;;;;;7386304;19;20151;-76
2022/04/28 10:39:07;;;;;;;1.98;1.65;;;18.20;88.60;;;;;;7385331;19;20151;-76
2022/04/28 10:41:34;;;;;;;3.13;1.60;;;18.10;89.90;;;;;;7388419;19;20140;-69
2022/04/28 10:44:00;;;;;;;1.85;1.60;;;18.20;89.50;;;;;;7389235;19;20143;-76
2022/04/28 10:46:28;;;;;;;2.35;1.80;;;18.30;88.50;;;;;;7386474;19;20150;-69
2022/04/28 10:48:59;;;;;;;1.60;1.40;;;18.40;89.20;;;;;;7388807;19;20154;-79
2022/04/28 10:51:27;;;;;;;2.53;1.92;;;18.50;89.40;;;;;;7383791;19;20126;-75
2022/04/28 10:54:21;;;;;;;2.35;1.85;;;18.70;88.20;;;;;;7385664;19;20141;-78
2022/04/28 10:56:54;;;;;;;2.80;1.90;;;18.70;87.90;;;;;;7390369;19;20146;-71
2022/04/28 10:59:34;;;;;;;2.05;1.65;;;18.60;87.70;;;;;;7391999;19;20217;-70
2022/04/28 11:02:15;;;;;;;3.25;1.80;;;18.70;87.30;;;;;;7387865;19;20127;-69
2022/04/28 11:04:43;;;;;;;2.20;1.60;;;18.70;86.40;;;;;;7387995;19;20135;-75
2022/04/28 11:07:24;;;;;;;2.30;1.65;;;18.70;87.40;;;;;;7389073;19;20150;-68
2022/04/28 11:10:07;;;;;;;1.65;1.55;;;18.90;87.30;;;;;;7387656;19;20202;-68
2022/04/28 11:12:35;;;;;;;3.15;1.60;;;18.80;86.80;;;;;;7386797;19;20127;-66
2022/04/28 11:15:06;;;;;;;2.13;1.60;;;18.80;87.00;;;;;;7388425;19;20172;-77
2022/04/28 11:17:35;;;;;;;2.58;1.58;;;18.80;87.10;;;;;;7390512;19;20458;-77
2022/04/28 11:20:12;;;;;;;2.95;1.70;;;18.80;86.00;;;;;;7390268;19;20154;-69
2022/04/28 11:22:46;;;;;;;1.70;1.60;;;18.80;86.40;;;;;;7391702;19;20154;-77
2022/04/28 11:25:17;;;;;;;2.78;1.77;;;18.90;86.00;;;;;;7390451;19;20130;-66
2022/04/28 11:27:46;;;;;;;2.42;1.73;;;18.90;86.00;;;;;;7390936;19;20130;-68
2022/04/28 11:30:15;;;;;;;2.50;1.50;;;18.90;85.00;;;;;;7387249;19;20193;-69
2022/04/28 11:32:52;;;;;;;2.17;1.50;;;18.90;85.30;;;;;;7392345;19;20143;-69
2022/04/28 11:35:19;;;;;;;1.60;1.50;;;19.00;85.50;;;;;;7390200;19;20330;-73
2022/04/28 11:37:46;;;;;;;3.35;1.40;;;19.00;85.90;;;;;;7390847;19;20241;-76
2022/04/28 11:40:13;;;;;;;1.88;1.67;;;19.10;86.20;;;;;;7391488;19;20143;-73
2022/04/28 11:42:41;;;;;;;1.67;1.40;;;19.10;85.80;;;;;;7391145;19;20163;-70
2022/04/28 11:45:07;;;;;;;1.95;1.50;;;19.20;85.10;;;;;;7388999;19;20579;-70
2022/04/28 11:47:41;;;;;;;2.08;1.73;;;19.30;85.20;;;;;;7388186;19;20139;-77
2022/04/28 11:50:07;;;;;;;2.65;1.77;;;19.30;84.30;;;;;;7387686;19;20149;-70
2022/04/28 11:52:34;;;;;;;2.08;1.50;;;19.40;84.00;;;;;;7387316;19;20127;-71
2022/04/28 11:55:05;;;;;;;2.15;1.77;;;19.30;83.40;;;;;;7387937;19;21648;-67
2022/04/28 11:57:31;;;;;;;2.35;1.80;;;19.40;84.80;;;;;;7385308;19;20134;-68
2022/04/28 11:59:58;;;;;;;3.05;1.52;;;19.50;82.60;;;;;;7387680;19;20130;-68
2022/04/28 12:02:29;;;;;;;1.80;1.50;;;19.50;83.00;;;;;;7389889;19;20458;-74
2022/04/28 12:04:56;;;;;;;1.83;1.55;;;19.50;83.40;;;;;;7390163;19;20135;-68
2022/04/28 12:07:27;;;;;;;2.80;1.73;;;19.60;81.60;;;;;;7387561;19;20130;-68
2022/04/28 12:15:23;;;;;;;1.85;1.52;;;19.50;82.50;;;;;;7387681;19;20168;-74
2022/04/28 12:21:15;;;;;;;1.67;1.40;;;19.90;81.60;;;;;;7388750;19;20241;-68
2022/04/28 12:23:45;;;;;;;1.75;1.65;;;19.90;82.20;;;;;;7382117;19;20209;-74
2022/04/28 12:26:13;;;;;;;3.08;1.83;;;19.90;82.10;;;;;;7385626;19;20142;-67
2022/04/28 12:28:43;;;;;;;2.08;1.60;;;20.00;81.30;;;;;;7384922;19;20166;-69
2022/04/28 12:31:11;;;;;;;1.73;1.60;;;19.90;81.80;;;;;;7384249;19;20712;-74
2022/04/28 12:33:39;;;;;;;1.40;1.30;;;19.90;81.90;;;;;;7385763;19;20154;-68
2022/04/28 12:36:07;;;;;;;1.60;1.50;;;19.90;81.10;;;;;;7382899;19;20130;-68
2022/04/28 12:38:35;;;;;;;2.47;1.52;;;20.00;80.50;;;;;;7383941;19;20167;-74
2022/04/28 12:41:16;;;;;;;2.03;1.35;;;20.00;79.50;;;;;;7386252;19;20141;-75
2022/04/28 12:43:49;;;;;;;1.92;1.70;;;20.00;78.30;;;;;;7386308;19;20138;-66
2022/04/28 12:46:33;;;;;;;2.13;1.63;;;19.90;79.40;;;;;;7385503;19;20151;-68
2022/04/28 12:49:03;;;;;;;1.88;1.40;;;19.90;79.70;;;;;;7383680;19;20153;-68
2022/04/28 12:51:31;;;;;;;3.60;1.60;;;19.90;80.20;;;;;;7385156;19;20138;-74
2022/04/28 12:54:21;;;;;;;1.80;1.60;;;20.00;80.10;;;;;;7383985;19;20397;-67
2022/04/28 12:57:07;;;;;;;2.03;1.60;;;20.00;78.70;;;;;;7382946;19;20941;-71
2022/04/28 12:59:36;;;;;;;1.35;1.25;;;20.10;78.90;;;;;;7384338;19;20166;-70
2022/04/28 13:02:04;;;;;;;2.20;1.55;;;20.20;77.30;;;;;;7386602;19;20145;-68
2022/04/28 13:04:35;;;;;;;1.88;1.52;;;20.20;77.10;;;;;;7387717;19;20150;-68
2022/04/28 13:07:01;;;;;;;2.33;1.50;;;20.20;77.70;;;;;;7385990;19;20166;-76
2022/04/28 13:09:29;;;;;;;1.75;1.40;;;20.20;77.20;;;;;;7388517;19;20130;-69
2022/04/28 13:11:56;;;;;;;2.25;1.60;;;20.20;77.40;;;;;;7385211;19;20387;-74
2022/04/28 13:14:22;;;;;;;1.40;1.05;;;20.30;78.20;;;;;;7386145;19;20130;-67
2022/04/28 13:16:50;;;;;;;2.67;1.40;;;20.40;77.50;;;;;;7383655;19;20478;-69
2022/04/28 13:19:18;;;;;;;1.52;1.40;;;20.30;77.50;;;;;;7383602;19;20149;-74
2022/04/28 13:21:45;;;;;;;2.00;1.63;;;20.40;76.40;;;;;;7383897;19;20157;-68
2022/04/28 13:24:11;;;;;;;2.70;1.60;;;20.30;77.00;;;;;;7382879;19;20462;-70
2022/04/28 13:26:37;;;;;;;2.60;1.65;;;20.30;76.70;;;;;;7386221;19;20519;-68